Time;durP1;ratioP1;P1;durP2;ratioP2;P2;SDS_P1;SDS_P2;PMS_P1;PMS_P2;Temp;Humidity;BMP_temperature;BMP_pressure;BME280_temperature;BME280_humidity;BME280_pressure;Samples;Min_cycle;Max_cycle;Signal;HPM_P1;HPM_P2
2022/03/09 00:01:13;;;;;;;;;;;;;;;-0.01;42.95;93112.28;2037766;70;20048;-74
2022/03/09 00:03:39;;;;;;;;;;;;;;;-0.01;41.94;93106.75;2037246;70;20158;-74
2022/03/09 00:06:05;;;;;;;;;;;;;;;-0.17;43.48;93102.28;2038030;70;20055;-73
2022/03/09 00:08:31;;;;;;;;;;;;;;;-0.07;42.00;93111.66;2037808;70;20044;-73
2022/03/09 00:10:56;;;;;;;;;;;;;;;-0.17;42.51;93107.09;2037777;70;20064;-74
2022/03/09 00:13:22;;;;;;;;;;;;;;;-0.22;43.90;93107.94;2037453;70;20115;-73
2022/03/09 00:15:47;;;;;;;;;;;;;;;-0.22;43.15;93107.94;2037574;70;20052;-73
2022/03/09 00:18:13;;;;;;;;;;;;;;;-0.19;43.02;93115.91;2037707;70;20091;-74
2022/03/09 00:20:38;;;;;;;;;;;;;;;-0.36;44.31;93119.00;2037676;70;20099;-73
2022/03/09 00:23:04;;;;;;;;;;;;;;;0.05;41.39;93111.47;2037826;70;20435;-74
2022/03/09 00:25:29;;;;;;;;;;;;;;;-0.23;43.53;93114.72;2037827;70;20059;-74
2022/03/09 00:27:55;;;;;;;;;;;;;;;-0.21;43.83;93117.72;2037654;70;20048;-73
2022/03/09 00:30:21;;;;;;;;;;;;;;;-0.24;44.20;93107.72;2039807;70;20052;-74
2022/03/09 00:32:47;;;;;;;;;;;;;;;-0.33;42.65;93111.63;2037945;70;20078;-75
2022/03/09 00:35:13;;;;;;;;;;;;;;;-0.20;43.25;93108.88;2037583;70;20071;-75
2022/03/09 00:37:38;;;;;;;;;;;;;;;-0.22;42.49;93113.47;2040244;70;20423;-73
2022/03/09 00:40:05;;;;;;;;;;;;;;;-0.08;42.39;93106.66;2038259;70;20142;-74
2022/03/09 00:42:34;;;;;;;;;;;;;;;-0.58;45.16;93108.31;2038374;70;20051;-74
2022/03/09 00:45:07;;;;;;;;;;;;;;;-0.34;43.61;93110.91;2038186;70;20058;-74
2022/03/09 00:47:33;;;;;;;;;;;;;;;-0.27;44.09;93115.81;2038340;70;20139;-74
2022/03/09 00:49:59;;;;;;;;;;;;;;;-0.42;44.51;93112.78;2038376;70;20572;-75
2022/03/09 00:52:24;;;;;;;;;;;;;;;-0.30;43.18;93114.09;2038042;70;20103;-73
2022/03/09 00:54:50;;;;;;;;;;;;;;;-0.05;41.48;93111.84;2038342;70;20064;-73
2022/03/09 00:57:15;;;;;;;;;;;;;;;-0.24;43.24;93113.25;2038107;70;20044;-74
2022/03/09 00:59:41;;;;;;;;;;;;;;;-0.32;43.24;93111.13;2037964;70;20052;-74
2022/03/09 01:02:06;;;;;;;;;;;;;;;-0.07;41.24;93105.38;2038250;70;20505;-75
2022/03/09 01:04:34;;;;;;;;;;;;;;;-0.22;43.11;93103.16;2038021;70;20135;-73
2022/03/09 01:06:59;;;;;;;;;;;;;;;-0.29;42.95;93106.53;2038249;70;20052;-74
2022/03/09 01:09:25;;;;;;;;;;;;;;;-0.24;43.18;93105.69;2037919;70;20135;-73
2022/03/09 01:11:50;;;;;;;;;;;;;;;-0.37;43.40;93105.66;2038043;70;20156;-72
2022/03/09 01:14:16;;;;;;;;;;;;;;;-0.38;43.35;93116.00;2038076;70;20183;-73
2022/03/09 01:16:42;;;;;;;;;;;;;;;-0.39;44.05;93122.06;2038017;70;20050;-73
2022/03/09 01:19:08;;;;;;;;;;;;;;;-0.54;44.44;93114.28;2038160;70;20052;-75
2022/03/09 01:21:35;;;;;;;;;;;;;;;-0.46;44.71;93111.59;2037999;70;20068;-75
2022/03/09 01:24:00;;;;;;;;;;;;;;;-0.46;43.61;93117.13;2038209;70;20055;-74
2022/03/09 01:26:26;;;;;;;;;;;;;;;-0.60;45.42;93114.34;2037650;70;20083;-74
2022/03/09 01:28:52;;;;;;;;;;;;;;;-0.63;43.83;93112.66;2038014;70;20120;-73
2022/03/09 01:31:17;;;;;;;;;;;;;;;-0.52;43.30;93115.22;2040256;70;20074;-73
2022/03/09 01:33:44;;;;;;;;;;;;;;;-0.41;43.63;93106.00;2038232;70;20060;-73
2022/03/09 01:36:09;;;;;;;;;;;;;;;-0.76;46.13;93109.84;2037182;70;20135;-73
2022/03/09 01:38:34;;;;;;;;;;;;;;;-0.61;45.39;93115.63;2037943;70;20156;-74
2022/03/09 01:41:00;;;;;;;;;;;;;;;-0.62;44.17;93119.69;2037965;70;20147;-74
2022/03/09 01:43:26;;;;;;;;;;;;;;;-0.52;44.22;93114.47;2041524;70;20064;-73
2022/03/09 01:45:52;;;;;;;;;;;;;;;-0.56;44.14;93111.28;2037087;70;20056;-73
2022/03/09 01:48:17;;;;;;;;;;;;;;;-0.81;45.43;93116.22;2037702;70;20067;-73
2022/03/09 01:50:44;;;;;;;;;;;;;;;-0.69;44.83;93117.50;2037693;70;20500;-75
2022/03/09 01:53:10;;;;;;;;;;;;;;;-0.69;45.19;93120.28;2037532;70;20052;-73
2022/03/09 01:55:36;;;;;;;;;;;;;;;-0.72;45.32;93121.34;2037580;70;20092;-73
2022/03/09 01:58:02;;;;;;;;;;;;;;;-0.65;44.74;93123.47;2037530;70;20208;-75
2022/03/09 02:00:28;;;;;;;;;;;;;;;-0.62;44.05;93119.69;2037501;70;20131;-74
2022/03/09 02:02:53;;;;;;;;;;;;;;;-0.51;44.02;93124.25;2037750;70;20204;-75
2022/03/09 02:05:18;;;;;;;;;;;;;;;-0.66;44.41;93126.78;2037622;70;20155;-74
2022/03/09 02:10:28;;;;;;;;;;;;;;;-0.67;44.62;93126.03;2037572;70;20048;-73
2022/03/09 02:12:55;;;;;;;;;;;;;;;-1.11;46.80;93135.75;2037639;70;20531;-73
2022/03/09 02:15:21;;;;;;;;;;;;;;;-1.11;46.57;93139.28;2037472;70;20807;-73
2022/03/09 02:17:46;;;;;;;;;;;;;;;-0.87;45.64;93126.59;2036969;70;20175;-73
2022/03/09 02:20:12;;;;;;;;;;;;;;;-1.00;45.91;93138.38;2037620;70;20172;-72
2022/03/09 02:22:41;;;;;;;;;;;;;;;-0.92;45.01;93132.97;2037537;70;20493;-73
2022/03/09 02:25:09;;;;;;;;;;;;;;;-0.77;45.34;93122.94;2037697;70;20166;-73
2022/03/09 02:27:35;;;;;;;;;;;;;;;-0.92;45.76;93132.97;2037829;70;20048;-73
2022/03/09 02:30:01;;;;;;;;;;;;;;;-0.86;45.42;93123.34;2037781;70;20048;-73
2022/03/09 02:32:27;;;;;;;;;;;;;;;-0.95;45.85;93126.50;2037805;70;20179;-73
2022/03/09 02:34:54;;;;;;;;;;;;;;;-0.98;45.55;93122.00;2037752;70;20052;-73
2022/03/09 02:37:19;;;;;;;;;;;;;;;-0.81;45.46;93121.75;2037451;70;20052;-73
2022/03/09 02:39:45;;;;;;;;;;;;;;;-0.84;45.63;93125.56;2037449;70;20055;-73
2022/03/09 02:42:11;;;;;;;;;;;;;;;-0.98;46.33;93129.56;2037536;70;20138;-73
2022/03/09 02:44:36;;;;;;;;;;;;;;;-0.87;44.49;93132.91;2036969;70;20166;-72
2022/03/09 02:47:02;;;;;;;;;;;;;;;-0.98;45.22;93124.78;2037444;70;20561;-73
2022/03/09 02:49:28;;;;;;;;;;;;;;;-1.04;45.45;93132.41;2037574;70;20139;-73
2022/03/09 02:51:54;;;;;;;;;;;;;;;-1.18;45.83;93134.38;2037390;70;20055;-73
2022/03/09 02:54:19;;;;;;;;;;;;;;;-1.18;46.92;93139.16;2037615;70;20080;-72
2022/03/09 02:56:45;;;;;;;;;;;;;;;-1.20;45.68;93139.66;2037781;70;20054;-73
2022/03/09 02:59:13;;;;;;;;;;;;;;;-1.08;45.40;93135.47;2037368;70;20062;-74
2022/03/09 03:01:42;;;;;;;;;;;;;;;-1.03;44.80;93140.16;2037597;70;20048;-74
2022/03/09 03:04:13;;;;;;;;;;;;;;;-1.20;46.04;93144.44;2037541;70;20128;-74
2022/03/09 03:06:45;;;;;;;;;;;;;;;-1.20;46.39;93138.91;2037658;70;20419;-74
2022/03/09 03:09:11;;;;;;;;;;;;;;;-1.35;46.49;93140.13;2037771;70;20415;-75
2022/03/09 03:11:38;;;;;;;;;;;;;;;-1.19;45.57;93143.16;2037654;70;20090;-74
2022/03/09 03:14:03;;;;;;;;;;;;;;;-1.29;45.75;93145.56;2037197;70;20051;-73
2022/03/09 03:16:29;;;;;;;;;;;;;;;-1.24;46.38;93149.50;2037656;70;20060;-74
2022/03/09 03:18:55;;;;;;;;;;;;;;;-1.32;46.92;93149.38;2037307;70;20495;-74
2022/03/09 03:21:21;;;;;;;;;;;;;;;-1.39;47.06;93145.19;2037277;70;20051;-74
2022/03/09 03:23:46;;;;;;;;;;;;;;;-1.37;47.60;93155.72;2037825;70;20068;-74
2022/03/09 03:26:14;;;;;;;;;;;;;;;-1.42;47.38;93156.53;2037799;70;20048;-74
2022/03/09 03:28:39;;;;;;;;;;;;;;;-1.27;45.69;93154.09;2037671;70;20066;-74
2022/03/09 03:31:06;;;;;;;;;;;;;;;-1.32;45.28;93149.38;2037877;70;20052;-74
2022/03/09 03:33:31;;;;;;;;;;;;;;;-1.38;47.09;93149.44;2037801;70;20434;-73
2022/03/09 03:35:57;;;;;;;;;;;;;;;-1.51;47.19;93154.13;2037810;70;20509;-73
2022/03/09 03:38:22;;;;;;;;;;;;;;;-1.40;45.26;93151.25;2037933;70;20152;-74
2022/03/09 03:40:48;;;;;;;;;;;;;;;-1.44;46.18;93157.06;2037780;70;20048;-74
2022/03/09 03:43:13;;;;;;;;;;;;;;;-1.51;46.98;93159.66;2037779;70;20056;-74
2022/03/09 03:45:39;;;;;;;;;;;;;;;-1.49;46.25;93155.13;2037681;70;20147;-74
2022/03/09 03:48:04;;;;;;;;;;;;;;;-1.55;46.31;93155.19;2037778;70;20052;-74
2022/03/09 03:50:30;;;;;;;;;;;;;;;-1.43;46.31;93153.03;2037846;70;20114;-74
2022/03/09 03:52:55;;;;;;;;;;;;;;;-1.43;46.70;93157.81;2037336;70;20180;-74
2022/03/09 03:55:21;;;;;;;;;;;;;;;-1.61;47.76;93153.75;2037757;70;20052;-74
2022/03/09 03:57:46;;;;;;;;;;;;;;;-1.80;48.29;93173.06;2037728;70;20454;-74
2022/03/09 04:00:12;;;;;;;;;;;;;;;-1.86;48.76;93172.38;2037622;70;20123;-74
2022/03/09 04:02:37;;;;;;;;;;;;;;;-1.86;48.20;93164.09;2037759;70;20142;-74
2022/03/09 04:05:05;;;;;;;;;;;;;;;-1.80;48.17;93164.78;2037729;70;20055;-74
2022/03/09 04:07:30;;;;;;;;;;;;;;;-1.73;48.46;93169.72;2037672;70;20066;-74
2022/03/09 04:09:56;;;;;;;;;;;;;;;-1.71;47.60;93161.66;2037694;70;20405;-74
2022/03/09 04:12:23;;;;;;;;;;;;;;;-1.78;46.71;93161.50;2037066;70;20044;-74
2022/03/09 04:14:48;;;;;;;;;;;;;;;-1.76;47.42;93164.50;2037561;70;20047;-74
2022/03/09 04:17:14;;;;;;;;;;;;;;;-1.79;48.24;93160.75;2037723;70;20142;-74
2022/03/09 04:19:39;;;;;;;;;;;;;;;-1.91;48.28;93167.69;2037698;70;20424;-74
2022/03/09 04:22:05;;;;;;;;;;;;;;;-1.90;48.29;93163.66;2037689;70;20173;-74
2022/03/09 04:24:31;;;;;;;;;;;;;;;-2.12;49.92;93161.88;2037691;70;20048;-75
2022/03/09 04:26:56;;;;;;;;;;;;;;;-1.88;48.50;93155.59;2037644;70;20547;-74
2022/03/09 04:29:21;;;;;;;;;;;;;;;-1.69;46.90;93158.41;2037713;70;20480;-73
2022/03/09 04:31:47;;;;;;;;;;;;;;;-1.82;47.57;93150.75;2037615;70;20115;-74
2022/03/09 04:34:12;;;;;;;;;;;;;;;-1.77;48.29;93154.72;2037694;70;20123;-74
2022/03/09 04:36:38;;;;;;;;;;;;;;;-1.70;47.09;93148.59;2037237;70;20043;-73
2022/03/09 04:39:05;;;;;;;;;;;;;;;-1.71;48.12;93158.16;2037670;70;20059;-74
2022/03/09 04:41:31;;;;;;;;;;;;;;;-1.55;46.96;93154.44;2037634;70;20140;-74
2022/03/09 04:43:56;;;;;;;;;;;;;;;-1.82;48.19;93151.50;2037532;70;20186;-74
2022/03/09 04:46:22;;;;;;;;;;;;;;;-1.76;47.96;93156.22;2037612;70;20051;-74
2022/03/09 04:48:49;;;;;;;;;;;;;;;-1.71;47.56;93152.63;2037707;70;20099;-74
2022/03/09 04:51:14;;;;;;;;;;;;;;;-1.82;48.43;93153.53;2037618;70;20052;-74
2022/03/09 04:53:40;;;;;;;;;;;;;;;-1.69;45.92;93150.13;2037624;70;20044;-74
2022/03/09 04:56:05;;;;;;;;;;;;;;;-1.64;45.82;93160.34;2037642;70;20477;-74
2022/03/09 04:58:31;;;;;;;;;;;;;;;-1.92;47.84;93161.41;2037505;70;20040;-74
2022/03/09 05:00:57;;;;;;;;;;;;;;;-1.76;47.13;93170.00;2037546;70;20068;-73
2022/03/09 05:03:22;;;;;;;;;;;;;;;-2.00;48.21;93166.00;2037572;70;20092;-73
2022/03/09 05:05:47;;;;;;;;;;;;;;;-1.99;47.39;93173.03;2037574;70;20047;-73
2022/03/09 05:08:13;;;;;;;;;;;;;;;-1.83;46.26;93172.09;2037514;70;20637;-74
2022/03/09 05:10:39;;;;;;;;;;;;;;;-1.74;47.01;93168.25;2037572;70;20048;-74
2022/03/09 05:13:05;;;;;;;;;;;;;;;-1.93;47.74;93170.19;2037561;70;20040;-74
2022/03/09 05:15:31;;;;;;;;;;;;;;;-1.89;48.16;93165.88;2037449;70;20048;-74
2022/03/09 05:17:57;;;;;;;;;;;;;;;-1.95;47.03;93176.25;2037516;70;20218;-73
2022/03/09 05:20:23;;;;;;;;;;;;;;;-2.02;48.06;93176.06;2037020;70;20473;-74
2022/03/09 05:22:49;;;;;;;;;;;;;;;-1.89;46.98;93176.91;2037515;70;20056;-75
2022/03/09 05:25:15;;;;;;;;;;;;;;;-1.88;47.38;93172.13;2037843;70;20058;-74
2022/03/09 05:27:41;;;;;;;;;;;;;;;-1.88;47.05;93174.91;2038257;70;20104;-75
2022/03/09 05:30:09;;;;;;;;;;;;;;;-1.84;45.37;93178.13;2037961;70;20071;-73
2022/03/09 05:32:36;;;;;;;;;;;;;;;-2.06;46.70;93187.41;2038079;70;20493;-73
2022/03/09 05:35:02;;;;;;;;;;;;;;;-1.83;46.19;93182.41;2038039;70;20494;-73
2022/03/09 05:37:35;;;;;;;;;;;;;;;-1.87;47.07;93187.47;2038011;70;20094;-74
2022/03/09 05:40:00;;;;;;;;;;;;;;;-2.28;49.07;93201.41;2038217;70;20495;-74
2022/03/09 05:42:25;;;;;;;;;;;;;;;-2.14;48.43;93194.75;2037985;70;20060;-74
2022/03/09 05:44:51;;;;;;;;;;;;;;;-2.17;48.32;93206.81;2037851;70;20048;-73
2022/03/09 05:47:17;;;;;;;;;;;;;;;-2.08;47.28;93214.75;2038047;70;20151;-72
2022/03/09 05:49:42;;;;;;;;;;;;;;;-2.05;47.86;93214.47;2037963;70;20048;-74
2022/03/09 05:52:08;;;;;;;;;;;;;;;-2.09;47.68;93227.06;2038034;70;20143;-73
2022/03/09 05:54:33;;;;;;;;;;;;;;;-2.10;47.44;93220.03;2038008;70;20063;-73
2022/03/09 05:56:59;;;;;;;;;;;;;;;-2.22;48.87;93222.16;2038058;70;20054;-73
2022/03/09 05:59:24;;;;;;;;;;;;;;;-2.10;48.04;93231.09;2037780;70;20143;-74
2022/03/09 06:01:50;;;;;;;;;;;;;;;-2.12;48.08;93237.09;2037680;70;20052;-74
2022/03/09 06:04:15;;;;;;;;;;;;;;;-2.20;48.80;93232.66;2037940;70;20060;-73
2022/03/09 06:06:40;;;;;;;;;;;;;;;-2.28;49.09;93240.03;2038088;70;20048;-73
2022/03/09 06:09:07;;;;;;;;;;;;;;;-2.16;48.69;93255.19;2037931;70;20067;-74
2022/03/09 06:11:33;;;;;;;;;;;;;;;-2.16;48.61;93255.94;2037914;70;20055;-73
2022/03/09 06:13:58;;;;;;;;;;;;;;;-2.13;47.99;93251.41;2037258;70;20052;-73
2022/03/09 06:16:23;;;;;;;;;;;;;;;-2.02;47.96;93258.84;2037873;70;20044;-73
2022/03/09 06:18:49;;;;;;;;;;;;;;;-2.05;48.13;93263.38;2037890;70;20111;-73
2022/03/09 06:21:15;;;;;;;;;;;;;;;-2.15;49.93;93262.22;2037900;70;20058;-73
2022/03/09 06:23:41;;;;;;;;;;;;;;;-2.15;50.20;93267.75;2037872;70;20120;-72
2022/03/09 06:26:06;;;;;;;;;;;;;;;-2.08;49.17;93269.94;2037889;70;20048;-73
2022/03/09 06:28:32;;;;;;;;;;;;;;;-2.01;49.05;93269.38;2037819;70;20131;-73
2022/03/09 06:30:57;;;;;;;;;;;;;;;-2.23;50.23;93275.81;2037893;70;20067;-74
2022/03/09 06:33:23;;;;;;;;;;;;;;;-2.10;49.21;93273.22;2037903;70;20147;-73
2022/03/09 06:35:48;;;;;;;;;;;;;;;-2.04;48.99;93275.91;2037901;70;20042;-73
2022/03/09 06:38:14;;;;;;;;;;;;;;;-2.15;49.75;93271.25;2037832;70;20058;-73
2022/03/09 06:40:40;;;;;;;;;;;;;;;-2.07;49.54;93274.91;2037875;70;20412;-72
2022/03/09 06:43:05;;;;;;;;;;;;;;;-2.17;49.65;93278.53;2037819;70;20078;-73
2022/03/09 06:45:31;;;;;;;;;;;;;;;-2.09;50.00;93282.97;2037769;70;20476;-73
2022/03/09 06:47:56;;;;;;;;;;;;;;;-2.08;49.51;93270.69;2037777;70;20420;-72
2022/03/09 06:50:21;;;;;;;;;;;;;;;-2.01;50.26;93288.69;2037850;70;20136;-73
2022/03/09 06:52:47;;;;;;;;;;;;;;;-2.08;49.62;93283.72;2037877;70;20068;-73
2022/03/09 06:55:13;;;;;;;;;;;;;;;-1.90;49.19;93285.81;2037931;70;20051;-73
2022/03/09 06:57:39;;;;;;;;;;;;;;;-1.73;48.07;93291.19;2037826;70;20048;-74
2022/03/09 07:00:06;;;;;;;;;;;;;;;-1.81;49.94;93287.50;2037680;70;20066;-74
2022/03/09 07:02:32;;;;;;;;;;;;;;;-1.91;49.89;93289.84;2037857;70;20044;-75
2022/03/09 07:04:58;;;;;;;;;;;;;;;-1.84;48.68;93289.25;2037830;70;20064;-73
2022/03/09 07:07:23;;;;;;;;;;;;;;;-1.80;48.24;93298.00;2037968;70;20477;-74
2022/03/09 07:09:48;;;;;;;;;;;;;;;-1.99;48.79;93299.94;2038032;70;20059;-74
2022/03/09 07:12:14;;;;;;;;;;;;;;;-1.76;48.21;93297.72;2037803;70;20052;-74
2022/03/09 07:14:39;;;;;;;;;;;;;;;-1.79;48.59;93298.75;2037796;70;20048;-74
2022/03/09 07:17:05;;;;;;;;;;;;;;;-1.77;49.60;93293.47;2037900;70;20055;-75
2022/03/09 07:19:31;;;;;;;;;;;;;;;-1.75;49.59;93295.72;2037804;70;20087;-75
2022/03/09 07:21:56;;;;;;;;;;;;;;;-1.70;49.16;93301.19;2037744;70;20040;-74
2022/03/09 07:24:22;;;;;;;;;;;;;;;-1.90;50.03;93296.84;2037846;70;20114;-75
2022/03/09 07:26:47;;;;;;;;;;;;;;;-2.03;50.37;93298.72;2037822;70;20139;-73
2022/03/09 07:29:13;;;;;;;;;;;;;;;-1.82;49.78;93297.78;2037741;70;20044;-75
2022/03/09 07:31:38;;;;;;;;;;;;;;;-1.74;50.30;93297.22;2037777;70;20060;-75
2022/03/09 07:34:04;;;;;;;;;;;;;;;-1.70;50.17;93290.13;2037774;70;20635;-74
2022/03/09 07:36:29;;;;;;;;;;;;;;;-1.70;49.63;93292.16;2037776;70;20048;-74
2022/03/09 07:38:55;;;;;;;;;;;;;;;-1.66;50.15;93289.84;2037766;70;20056;-76
2022/03/09 07:41:20;;;;;;;;;;;;;;;-1.62;50.20;93293.09;2037786;70;20048;-75
2022/03/09 07:43:46;;;;;;;;;;;;;;;-1.63;49.84;93286.81;2037187;70;20055;-76
2022/03/09 07:46:11;;;;;;;;;;;;;;;-1.55;49.76;93296.03;2037727;70;20047;-74
2022/03/09 07:48:37;;;;;;;;;;;;;;;-1.47;48.83;93295.44;2037625;70;20075;-75
2022/03/09 07:51:02;;;;;;;;;;;;;;;-1.60;49.13;93296.84;2037720;70;20040;-77
2022/03/09 07:53:28;;;;;;;;;;;;;;;-1.44;48.38;93297.16;2037766;70;20044;-76
2022/03/09 07:55:53;;;;;;;;;;;;;;;-1.50;49.73;93288.94;2037687;70;20394;-75
2022/03/09 07:58:19;;;;;;;;;;;;;;;-1.44;48.85;93291.66;2037604;70;20040;-75
2022/03/09 08:00:44;;;;;;;;;;;;;;;-1.44;48.62;93294.41;2037562;70;20079;-74
2022/03/09 08:03:10;;;;;;;;;;;;;;;-1.29;47.26;93292.72;2037716;70;20048;-76
2022/03/09 08:05:35;;;;;;;;;;;;;;;-1.30;49.11;93290.47;2037589;70;20458;-73
2022/03/09 08:08:01;;;;;;;;;;;;;;;-0.66;49.80;93290.69;2037587;70;20493;-74
2022/03/09 08:10:26;;;;;;;;;;;;;;;-0.11;47.71;93282.81;2037653;70;20428;-74
2022/03/09 08:12:52;;;;;;;;;;;;;;;0.51;45.89;93270.72;2037626;70;20059;-74
2022/03/09 08:15:17;;;;;;;;;;;;;;;0.92;47.21;93261.13;2037466;70;20523;-75
2022/03/09 08:17:42;;;;;;;;;;;;;;;1.36;44.58;93270.50;2037710;70;20052;-75
2022/03/09 08:20:08;;;;;;;;;;;;;;;1.93;44.05;93259.66;2037691;70;20055;-75
2022/03/09 08:22:33;;;;;;;;;;;;;;;2.18;43.63;93259.31;2037569;70;20058;-75
2022/03/09 08:24:59;;;;;;;;;;;;;;;2.69;42.51;93253.94;2037556;70;20484;-75
2022/03/09 08:27:25;;;;;;;;;;;;;;;3.79;40.50;93252.56;2037746;70;20054;-74
2022/03/09 08:29:50;;;;;;;;;;;;;;;3.86;39.66;93256.66;2037521;70;20135;-75
2022/03/09 08:32:19;;;;;;;;;;;;;;;3.63;38.42;93251.78;2037599;70;20090;-75
2022/03/09 08:34:44;;;;;;;;;;;;;;;4.64;40.51;93239.44;2037590;70;20139;-75
2022/03/09 08:37:10;;;;;;;;;;;;;;;4.42;38.60;93241.66;2037683;70;20151;-74
2022/03/09 08:39:35;;;;;;;;;;;;;;;4.61;39.29;93243.34;2037577;70;20051;-75
2022/03/09 08:42:01;;;;;;;;;;;;;;;5.24;37.23;93235.03;2042453;70;20457;-74
2022/03/09 08:44:26;;;;;;;;;;;;;;;5.55;36.37;93232.84;2037424;70;20134;-75
2022/03/09 08:46:53;;;;;;;;;;;;;;;6.16;35.23;93235.31;2037512;70;20561;-74
2022/03/09 08:49:19;;;;;;;;;;;;;;;7.12;34.47;93230.03;2037505;70;20048;-75
2022/03/09 08:51:44;;;;;;;;;;;;;;;5.83;32.50;93229.00;2037519;70;20041;-74
2022/03/09 08:54:10;;;;;;;;;;;;;;;6.47;31.94;93223.94;2037471;70;20040;-75
2022/03/09 08:56:35;;;;;;;;;;;;;;;7.08;33.25;93220.56;2037501;70;20056;-75
2022/03/09 08:59:01;;;;;;;;;;;;;;;7.56;31.47;93220.94;2037805;70;20404;-75
2022/03/09 09:01:27;;;;;;;;;;;;;;;7.78;30.41;93216.34;2038053;70;20087;-75
2022/03/09 09:03:52;;;;;;;;;;;;;;;7.77;29.43;93217.69;2038081;70;20051;-74
2022/03/09 09:06:17;;;;;;;;;;;;;;;8.46;28.40;93218.78;2037963;70;20178;-74
2022/03/09 09:08:44;;;;;;;;;;;;;;;7.43;27.67;93212.88;2037995;70;20119;-74
2022/03/09 09:11:11;;;;;;;;;;;;;;;7.19;29.15;93211.66;2038277;70;20052;-74
2022/03/09 09:13:36;;;;;;;;;;;;;;;8.76;27.94;93212.69;2038026;70;20487;-74
2022/03/09 09:16:02;;;;;;;;;;;;;;;8.53;28.21;93206.72;2038048;70;20121;-74
2022/03/09 09:18:28;;;;;;;;;;;;;;;9.19;27.40;93206.69;2038153;70;20075;-73
2022/03/09 09:20:53;;;;;;;;;;;;;;;9.87;26.75;93202.53;2038037;70;20048;-73
2022/03/09 09:23:19;;;;;;;;;;;;;;;10.35;26.22;93195.31;2038026;70;20055;-73
2022/03/09 09:25:45;;;;;;;;;;;;;;;10.88;25.36;93193.28;2038009;70;20084;-74
2022/03/09 09:28:11;;;;;;;;;;;;;;;10.87;24.56;93189.00;2037990;70;20095;-73
2022/03/09 09:30:36;;;;;;;;;;;;;;;10.63;25.12;93191.66;2037912;70;20051;-73
2022/03/09 09:33:02;;;;;;;;;;;;;;;10.28;25.09;93187.78;2038021;70;20432;-73
2022/03/09 09:35:28;;;;;;;;;;;;;;;10.10;23.83;93185.16;2038021;70;20109;-77
2022/03/09 09:37:53;;;;;;;;;;;;;;;10.74;24.11;93181.81;2038027;70;20051;-75
2022/03/09 09:40:19;;;;;;;;;;;;;;;12.00;24.08;93183.66;2038078;70;20139;-74
2022/03/09 09:42:45;;;;;;;;;;;;;;;12.68;23.20;93183.63;2037987;70;20044;-75
2022/03/09 09:45:10;;;;;;;;;;;;;;;12.24;22.80;93180.91;2037890;70;20135;-75
2022/03/09 09:47:36;;;;;;;;;;;;;;;11.95;23.93;93171.38;2038045;70;20155;-75
2022/03/09 09:50:03;;;;;;;;;;;;;;;12.14;21.84;93169.72;2037945;70;20080;-74
2022/03/09 09:52:29;;;;;;;;;;;;;;;13.43;22.18;93173.25;2037912;70;20572;-75
2022/03/09 09:54:56;;;;;;;;;;;;;;;13.09;21.80;93177.59;2037410;70;20493;-74
2022/03/09 09:57:22;;;;;;;;;;;;;;;13.06;22.23;93183.75;2037872;70;20078;-74
2022/03/09 09:59:48;;;;;;;;;;;;;;;13.19;22.18;93183.09;2037193;70;20083;-73
2022/03/09 10:02:14;;;;;;;;;;;;;;;13.77;20.97;93178.66;2037903;70;20138;-74
2022/03/09 10:04:40;;;;;;;;;;;;;;;14.05;21.79;93171.03;2037940;70;20070;-73
2022/03/09 10:07:06;;;;;;;;;;;;;;;13.62;19.72;93174.31;2037963;70;20144;-74
2022/03/09 10:09:35;;;;;;;;;;;;;;;13.00;19.60;93172.81;2038079;70;20069;-74
2022/03/09 10:12:00;;;;;;;;;;;;;;;14.59;19.47;93169.72;2037971;70;20089;-76
2022/03/09 10:14:47;;;;;;;;;;;;;;;15.14;18.68;93164.09;2037841;70;20481;-73
2022/03/09 10:17:14;;;;;;;;;;;;;;;15.19;18.31;93163.66;2037911;70;20562;-73
2022/03/09 10:19:42;;;;;;;;;;;;;;;14.90;18.94;93160.75;2037927;70;20044;-74
2022/03/09 10:22:27;;;;;;;;;;;;;;;15.40;17.54;93161.88;2037357;70;20072;-75
2022/03/09 10:24:53;;;;;;;;;;;;;;;15.52;19.25;93160.34;2037929;70;20089;-75
2022/03/09 10:27:33;;;;;;;;;;;;;;;15.33;17.08;93154.41;2038010;70;20048;-74
2022/03/09 10:30:00;;;;;;;;;;;;;;;14.24;17.31;93157.22;2037250;70;20060;-76
2022/03/09 10:32:41;;;;;;;;;;;;;;;14.22;17.50;93151.47;2038183;70;20048;-73
2022/03/09 10:35:07;;;;;;;;;;;;;;;15.50;17.24;93151.03;2037914;70;20048;-74
2022/03/09 10:37:42;;;;;;;;;;;;;;;15.50;17.27;93154.59;2038042;70;20473;-75
2022/03/09 10:40:16;;;;;;;;;;;;;;;16.08;16.79;93151.69;2037925;70;20162;-74
2022/03/09 10:42:41;;;;;;;;;;;;;;;16.74;16.34;93151.25;2037949;70;20485;-75
2022/03/09 10:45:08;;;;;;;;;;;;;;;16.10;17.32;93146.13;2037855;70;20046;-74
2022/03/09 10:47:41;;;;;;;;;;;;;;;16.23;16.86;93140.38;2037825;70;20063;-74
2022/03/09 10:50:32;;;;;;;;;;;;;;;17.10;17.03;93139.31;2037820;70;20596;-75
2022/03/09 10:52:59;;;;;;;;;;;;;;;16.68;15.26;93138.88;2037311;70;20075;-75
2022/03/09 10:55:32;;;;;;;;;;;;;;;18.15;14.97;93143.00;2037911;70;20049;-74
2022/03/09 10:58:14;;;;;;;;;;;;;;;17.94;16.30;93135.75;2037840;70;20074;-75
2022/03/09 11:00:45;;;;;;;;;;;;;;;16.65;16.02;93135.19;2037665;70;20139;-76
2022/03/09 11:03:14;;;;;;;;;;;;;;;15.80;15.69;93129.09;2037882;70;20048;-75
2022/03/09 11:05:58;;;;;;;;;;;;;;;17.19;14.91;93126.91;2037855;70;20484;-76
2022/03/09 11:08:26;;;;;;;;;;;;;;;19.48;15.06;93131.53;2038235;70;20473;-75
2022/03/09 11:10:51;;;;;;;;;;;;;;;20.53;14.35;93124.28;2037709;70;20417;-77
2022/03/09 11:13:17;;;;;;;;;;;;;;;19.91;13.10;93129.41;2037816;70;20059;-75
2022/03/09 11:15:43;;;;;;;;;;;;;;;20.66;13.92;93125.34;2037105;70;20044;-73
2022/03/09 11:18:13;;;;;;;;;;;;;;;22.92;13.15;93124.81;2037805;70;20064;-73
2022/03/09 11:20:39;;;;;;;;;;;;;;;23.79;13.13;93125.84;2037010;70;20071;-73
2022/03/09 11:23:05;;;;;;;;;;;;;;;24.97;12.80;93124.13;2039615;70;20512;-74
2022/03/09 11:25:30;;;;;;;;;;;;;;;27.09;10.99;93123.41;2041287;70;20635;-73
2022/03/09 11:27:56;;;;;;;;;;;;;;;25.48;11.24;93110.41;2041186;70;20048;-71
2022/03/09 11:30:28;;;;;;;;;;;;;;;27.30;11.32;93124.22;2041166;70;20138;-71
2022/03/09 11:32:55;;;;;;;;;;;;;;;27.11;9.49;93117.63;2040615;70;20135;-72
2022/03/09 11:35:30;;;;;;;;;;;;;;;26.32;10.40;93109.09;2040972;70;20067;-72
2022/03/09 11:37:55;;;;;;;;;;;;;;;27.41;10.03;93107.66;2041284;70;20560;-72
2022/03/09 11:40:21;;;;;;;;;;;;;;;26.81;9.57;93104.44;2041149;70;20131;-73
2022/03/09 11:42:46;;;;;;;;;;;;;;;26.38;10.43;93097.59;2041096;70;20055;-71
2022/03/09 11:45:15;;;;;;;;;;;;;;;27.32;9.85;93098.97;2040789;70;20492;-72
2022/03/09 11:48:01;;;;;;;;;;;;;;;30.31;9.39;93108.13;2041189;70;20068;-72
2022/03/09 11:50:27;;;;;;;;;;;;;;;28.82;8.01;93102.88;2040822;70;20127;-72
2022/03/09 11:52:54;;;;;;;;;;;;;;;27.03;8.26;93092.31;2041115;70;20054;-73
2022/03/09 11:55:19;;;;;;;;;;;;;;;28.20;7.62;93086.91;2040693;70;20054;-73
2022/03/09 11:57:45;;;;;;;;;;;;;;;26.88;8.11;93090.03;2040575;70;20063;-72
2022/03/09 12:00:14;;;;;;;;;;;;;;;28.92;7.90;93094.16;2040601;70;20130;-71
2022/03/09 12:02:40;;;;;;;;;;;;;;;28.68;7.58;93083.31;2040811;70;20048;-72
2022/03/09 12:05:07;;;;;;;;;;;;;;;30.75;8.72;93074.38;2040732;70;20477;-73
2022/03/09 12:07:34;;;;;;;;;;;;;;;30.94;7.83;93072.75;2040596;70;20064;-73
2022/03/09 12:10:09;;;;;;;;;;;;;;;29.95;7.97;93071.31;2040912;70;20051;-73
2022/03/09 12:12:36;;;;;;;;;;;;;;;29.62;7.43;93066.41;2040135;70;20153;-74
2022/03/09 12:15:03;;;;;;;;;;;;;;;32.26;8.00;93067.50;2040666;70;20082;-73
2022/03/09 12:17:29;;;;;;;;;;;;;;;32.08;7.79;93059.75;2040530;70;20098;-75
2022/03/09 12:20:13;;;;;;;;;;;;;;;28.32;7.61;93057.97;2040757;70;20056;-74
2022/03/09 12:22:59;;;;;;;;;;;;;;;26.98;7.89;93047.47;2040660;70;20216;-72
2022/03/09 12:25:34;;;;;;;;;;;;;;;28.64;7.77;93057.25;2039351;70;20635;-73
2022/03/09 12:28:18;;;;;;;;;;;;;;;27.05;9.38;93043.19;2040687;70;20091;-72
2022/03/09 12:30:47;;;;;;;;;;;;;;;28.05;7.66;93048.56;2040054;70;20048;-72
2022/03/09 12:33:39;;;;;;;;;;;;;;;29.16;8.24;93044.13;2041007;70;20067;-72
2022/03/09 12:36:10;;;;;;;;;;;;;;;30.38;8.38;93043.44;2041178;70;20527;-72
2022/03/09 12:38:40;;;;;;;;;;;;;;;31.67;8.22;93041.41;2041900;70;20051;-72
2022/03/09 12:41:06;;;;;;;;;;;;;;;32.27;8.01;93039.81;2041848;70;20242;-72
2022/03/09 12:43:47;;;;;;;;;;;;;;;32.24;7.50;93034.75;2041816;70;20067;-72
2022/03/09 12:46:13;;;;;;;;;;;;;;;33.20;6.70;93030.94;2041858;70;20050;-72
2022/03/09 12:48:39;;;;;;;;;;;;;;;32.83;7.40;93030.88;2041717;70;20064;-72